Cassville, Missouri
Current Conditions -  °F | °C
As of 1:35 AM on Thursday 23 Oct 2014 (Local Time) from KHFJ Reporting Station
Clear Clear  
Wind Chill: 12°   Ceiling: Unl
Heat Index: 12°   Visibility: 10mi
Dew Point:   Wind: 7mph
Humidity: 82%   Direction: 130°SE
Pressure: 30.15"   Gusts: NA
Location:  36.68°N, 93.87°W
Report Text: KHFJ 230635Z AUTO 13006KT 10SM CLR 12/09 A3015 RMK AO2
Loading
Personal Weather Stations






























Interactive Weather Map
Tropical Storm Tracking
New forecast layout! Learn more

10-Day Weather Forecast

Advertisements
Track Severe Weather on mobile